sensor_id;sensor_type;location;lat;lon;timestamp;pressure;altitude;pressure_sealevel;temperature;humidity
55733;BME280;41637;52.364;9.910;2023-03-14T00:00:16;98360.35;;;12.07;74.32
55733;BME280;41637;52.364;9.910;2023-03-14T00:02:43;98370.34;;;12.09;74.29
55733;BME280;41637;52.364;9.910;2023-03-14T00:05:09;98366.52;;;12.09;74.38
55733;BME280;41637;52.364;9.910;2023-03-14T00:07:37;98349.50;;;12.09;74.45
55733;BME280;41637;52.364;9.910;2023-03-14T00:10:11;98336.48;;;12.10;74.43
55733;BME280;41637;52.364;9.910;2023-03-14T00:12:39;98322.46;;;12.07;74.90
55733;BME280;41637;52.364;9.910;2023-03-14T00:15:06;98310.95;;;12.03;75.15
55733;BME280;41637;52.364;9.910;2023-03-14T00:17:34;98297.59;;;11.99;75.51
55733;BME280;41637;52.364;9.910;2023-03-14T00:20:02;98280.97;;;11.97;75.86
55733;BME280;41637;52.364;9.910;2023-03-14T00:22:35;98281.81;;;11.93;76.54
55733;BME280;41637;52.364;9.910;2023-03-14T00:25:03;98304.09;;;11.88;76.88
55733;BME280;41637;52.364;9.910;2023-03-14T00:27:30;98306.08;;;11.87;77.34
55733;BME280;41637;52.364;9.910;2023-03-14T00:29:57;98293.08;;;11.83;77.65
55733;BME280;41637;52.364;9.910;2023-03-14T00:32:23;98295.05;;;11.81;77.75
55733;BME280;41637;52.364;9.910;2023-03-14T00:34:50;98301.05;;;11.78;77.97
55733;BME280;41637;52.364;9.910;2023-03-14T00:37:17;98307.24;;;11.76;78.51
55733;BME280;41637;52.364;9.910;2023-03-14T00:39:43;98309.23;;;11.73;78.60
55733;BME280;41637;52.364;9.910;2023-03-14T00:42:12;98319.98;;;11.71;78.80
55733;BME280;41637;52.364;9.910;2023-03-14T00:44:38;98317.09;;;11.68;78.84
55733;BME280;41637;52.364;9.910;2023-03-14T00:47:05;98330.38;;;11.65;79.19
55733;BME280;41637;52.364;9.910;2023-03-14T00:49:32;98339.54;;;11.60;79.60
55733;BME280;41637;52.364;9.910;2023-03-14T00:51:58;98338.39;;;11.58;79.80
55733;BME280;41637;52.364;9.910;2023-03-14T00:54:25;98345.59;;;11.57;80.08
55733;BME280;41637;52.364;9.910;2023-03-14T00:56:51;98351.75;;;11.57;80.26
55733;BME280;41637;52.364;9.910;2023-03-14T00:59:21;98342.03;;;11.57;80.02
55733;BME280;41637;52.364;9.910;2023-03-14T01:01:47;98331.48;;;11.58;80.25
55733;BME280;41637;52.364;9.910;2023-03-14T01:04:14;98326.80;;;11.57;80.17
55733;BME280;41637;52.364;9.910;2023-03-14T01:06:40;98314.46;;;11.57;80.16
55733;BME280;41637;52.364;9.910;2023-03-14T01:09:07;98305.45;;;11.55;80.32
55733;BME280;41637;52.364;9.910;2023-03-14T01:11:34;98294.15;;;11.52;80.25
55733;BME280;41637;52.364;9.910;2023-03-14T01:14:02;98277.73;;;11.51;80.27
55733;BME280;41637;52.364;9.910;2023-03-14T01:16:31;98276.52;;;11.52;80.01
55733;BME280;41637;52.364;9.910;2023-03-14T01:18:58;98279.00;;;11.54;79.91
55733;BME280;41637;52.364;9.910;2023-03-14T01:21:28;98287.95;;;11.55;79.71
55733;BME280;41637;52.364;9.910;2023-03-14T01:23:59;98286.11;;;11.57;79.41
55733;BME280;41637;52.364;9.910;2023-03-14T01:26:28;98291.30;;;11.57;79.16
55733;BME280;41637;52.364;9.910;2023-03-14T01:28:56;98272.90;;;11.58;78.98
55733;BME280;41637;52.364;9.910;2023-03-14T01:31:23;98276.39;;;11.60;78.70
55733;BME280;41637;52.364;9.910;2023-03-14T01:33:50;98272.50;;;11.62;78.18
55733;BME280;41637;52.364;9.910;2023-03-14T01:36:17;98261.17;;;11.66;77.96
55733;BME280;41637;52.364;9.910;2023-03-14T01:38:47;98260.52;;;11.68;77.70
55733;BME280;41637;52.364;9.910;2023-03-14T01:41:17;98256.31;;;11.66;77.65
55733;BME280;41637;52.364;9.910;2023-03-14T01:43:48;98254.84;;;11.65;77.64
55733;BME280;41637;52.364;9.910;2023-03-14T01:48:52;98278.98;;;11.63;77.62
55733;BME280;41637;52.364;9.910;2023-03-14T01:51:31;98285.73;;;11.63;77.53
55733;BME280;41637;52.364;9.910;2023-03-14T01:54:08;98281.61;;;11.64;77.65
55733;BME280;41637;52.364;9.910;2023-03-14T01:56:36;98262.43;;;11.64;77.55
55733;BME280;41637;52.364;9.910;2023-03-14T01:59:06;98241.27;;;11.62;77.77
55733;BME280;41637;52.364;9.910;2023-03-14T02:01:34;98232.48;;;11.61;77.73
55733;BME280;41637;52.364;9.910;2023-03-14T02:04:02;98253.27;;;11.59;77.61
55733;BME280;41637;52.364;9.910;2023-03-14T02:06:55;98247.69;;;11.58;77.75
55733;BME280;41637;52.364;9.910;2023-03-14T02:09:23;98245.14;;;11.58;77.64
55733;BME280;41637;52.364;9.910;2023-03-14T02:11:50;98245.79;;;11.59;77.70
55733;BME280;41637;52.364;9.910;2023-03-14T02:14:27;98243.48;;;11.60;77.43
55733;BME280;41637;52.364;9.910;2023-03-14T02:16:54;98256.05;;;11.64;77.43
55733;BME280;41637;52.364;9.910;2023-03-14T02:19:30;98251.30;;;11.62;77.43
55733;BME280;41637;52.364;9.910;2023-03-14T02:22:10;98254.05;;;11.61;77.41
55733;BME280;41637;52.364;9.910;2023-03-14T02:25:05;98257.69;;;11.62;77.35
55733;BME280;41637;52.364;9.910;2023-03-14T02:27:34;98264.66;;;11.61;77.30
55733;BME280;41637;52.364;9.910;2023-03-14T02:32:31;98269.45;;;11.62;76.91
55733;BME280;41637;52.364;9.910;2023-03-14T02:35:01;98259.77;;;11.64;76.36
55733;BME280;41637;52.364;9.910;2023-03-14T02:37:41;98251.56;;;11.65;76.20
55733;BME280;41637;52.364;9.910;2023-03-14T02:40:09;98249.70;;;11.65;76.30
55733;BME280;41637;52.364;9.910;2023-03-14T02:42:36;98242.11;;;11.62;76.01
55733;BME280;41637;52.364;9.910;2023-03-14T02:47:37;98236.89;;;11.62;75.59
55733;BME280;41637;52.364;9.910;2023-03-14T02:50:18;98226.99;;;11.60;75.75
55733;BME280;41637;52.364;9.910;2023-03-14T02:52:46;98224.45;;;11.57;75.70
55733;BME280;41637;52.364;9.910;2023-03-14T02:55:13;98212.52;;;11.56;75.64
55733;BME280;41637;52.364;9.910;2023-03-14T02:57:39;98209.95;;;11.53;75.79
55733;BME280;41637;52.364;9.910;2023-03-14T03:00:07;98210.35;;;11.48;75.67
55733;BME280;41637;52.364;9.910;2023-03-14T03:02:35;98211.05;;;11.46;75.58
55733;BME280;41637;52.364;9.910;2023-03-14T03:05:02;98199.73;;;11.43;75.73
55733;BME280;41637;52.364;9.910;2023-03-14T03:07:28;98205.14;;;11.41;75.67
55733;BME280;41637;52.364;9.910;2023-03-14T03:09:55;98200.38;;;11.38;75.60
55733;BME280;41637;52.364;9.910;2023-03-14T03:12:21;98197.49;;;11.37;75.60
55733;BME280;41637;52.364;9.910;2023-03-14T03:14:48;98191.96;;;11.36;75.56
55733;BME280;41637;52.364;9.910;2023-03-14T03:17:15;98191.90;;;11.36;75.77
55733;BME280;41637;52.364;9.910;2023-03-14T03:19:42;98191.80;;;11.33;75.66
55733;BME280;41637;52.364;9.910;2023-03-14T03:22:08;98192.66;;;11.33;75.67
55733;BME280;41637;52.364;9.910;2023-03-14T03:24:35;98193.00;;;11.31;75.82
55733;BME280;41637;52.364;9.910;2023-03-14T03:27:02;98185.16;;;11.29;75.76
55733;BME280;41637;52.364;9.910;2023-03-14T03:29:28;98184.70;;;11.23;76.05
55733;BME280;41637;52.364;9.910;2023-03-14T03:31:58;98185.64;;;11.19;76.08
55733;BME280;41637;52.364;9.910;2023-03-14T03:34:25;98186.79;;;11.18;76.14
55733;BME280;41637;52.364;9.910;2023-03-14T03:36:56;98181.85;;;11.18;76.15
55733;BME280;41637;52.364;9.910;2023-03-14T03:39:22;98178.44;;;11.17;75.89
55733;BME280;41637;52.364;9.910;2023-03-14T03:41:49;98167.10;;;11.18;75.93
55733;BME280;41637;52.364;9.910;2023-03-14T03:44:16;98178.02;;;11.20;75.93
55733;BME280;41637;52.364;9.910;2023-03-14T03:46:45;98174.52;;;11.20;75.70
55733;BME280;41637;52.364;9.910;2023-03-14T03:49:11;98175.77;;;11.24;75.54
55733;BME280;41637;52.364;9.910;2023-03-14T03:51:39;98185.59;;;11.23;78.10
55733;BME280;41637;52.364;9.910;2023-03-14T03:54:06;98178.02;;;11.14;80.11
55733;BME280;41637;52.364;9.910;2023-03-14T03:56:33;98180.63;;;10.99;81.10
55733;BME280;41637;52.364;9.910;2023-03-14T03:58:59;98192.94;;;10.84;81.61
55733;BME280;41637;52.364;9.910;2023-03-14T04:01:26;98215.64;;;10.72;82.79
55733;BME280;41637;52.364;9.910;2023-03-14T04:03:53;98217.38;;;10.55;85.33
55733;BME280;41637;52.364;9.910;2023-03-14T04:06:20;98241.73;;;10.23;88.25
55733;BME280;41637;52.364;9.910;2023-03-14T04:08:47;98250.53;;;9.97;91.52
55733;BME280;41637;52.364;9.910;2023-03-14T04:11:14;98252.19;;;9.69;92.39
55733;BME280;41637;52.364;9.910;2023-03-14T04:13:43;98232.30;;;9.47;93.44
55733;BME280;41637;52.364;9.910;2023-03-14T04:16:16;98218.49;;;9.37;96.00
55733;BME280;41637;52.364;9.910;2023-03-14T04:18:43;98206.61;;;9.29;96.50
55733;BME280;41637;52.364;9.910;2023-03-14T04:21:10;98208.02;;;9.24;97.46
55733;BME280;41637;52.364;9.910;2023-03-14T04:23:37;98206.01;;;9.19;97.85
55733;BME280;41637;52.364;9.910;2023-03-14T04:26:04;98210.27;;;9.14;98.13
55733;BME280;41637;52.364;9.910;2023-03-14T04:28:31;98203.34;;;9.10;98.00
55733;BME280;41637;52.364;9.910;2023-03-14T04:30:58;98198.45;;;9.07;97.74
55733;BME280;41637;52.364;9.910;2023-03-14T04:33:25;98198.02;;;9.04;97.34
55733;BME280;41637;52.364;9.910;2023-03-14T04:35:55;98195.90;;;9.00;96.43
55733;BME280;41637;52.364;9.910;2023-03-14T04:38:22;98194.86;;;8.96;95.73
55733;BME280;41637;52.364;9.910;2023-03-14T04:40:49;98197.73;;;8.91;95.37
55733;BME280;41637;52.364;9.910;2023-03-14T04:43:16;98184.30;;;8.88;94.78
55733;BME280;41637;52.364;9.910;2023-03-14T04:45:43;98178.35;;;8.85;94.17
55733;BME280;41637;52.364;9.910;2023-03-14T04:48:10;98170.68;;;8.81;93.78
55733;BME280;41637;52.364;9.910;2023-03-14T04:50:37;98175.89;;;8.78;93.79
55733;BME280;41637;52.364;9.910;2023-03-14T04:53:04;98171.83;;;8.74;93.71
55733;BME280;41637;52.364;9.910;2023-03-14T04:55:32;98167.34;;;8.70;93.61
55733;BME280;41637;52.364;9.910;2023-03-14T04:57:59;98163.97;;;8.67;93.25
55733;BME280;41637;52.364;9.910;2023-03-14T05:00:25;98160.61;;;8.64;92.88
55733;BME280;41637;52.364;9.910;2023-03-14T05:02:52;98160.66;;;8.59;92.80
55733;BME280;41637;52.364;9.910;2023-03-14T05:05:20;98157.31;;;8.56;92.49
55733;BME280;41637;52.364;9.910;2023-03-14T05:07:47;98152.90;;;8.55;92.48
55733;BME280;41637;52.364;9.910;2023-03-14T05:10:13;98152.63;;;8.51;92.45
55733;BME280;41637;52.364;9.910;2023-03-14T05:12:40;98152.25;;;8.49;92.57
55733;BME280;41637;52.364;9.910;2023-03-14T05:15:08;98147.33;;;8.47;92.00
55733;BME280;41637;52.364;9.910;2023-03-14T05:17:35;98143.84;;;8.46;92.05
55733;BME280;41637;52.364;9.910;2023-03-14T05:20:03;98141.77;;;8.46;92.17
55733;BME280;41637;52.364;9.910;2023-03-14T05:22:35;98138.52;;;8.48;92.19
55733;BME280;41637;52.364;9.910;2023-03-14T05:25:02;98147.08;;;8.49;92.10
55733;BME280;41637;52.364;9.910;2023-03-14T05:27:29;98139.98;;;8.49;92.23
55733;BME280;41637;52.364;9.910;2023-03-14T05:29:56;98137.20;;;8.50;92.29
55733;BME280;41637;52.364;9.910;2023-03-14T05:32:22;98138.21;;;8.50;92.36
55733;BME280;41637;52.364;9.910;2023-03-14T05:34:49;98137.62;;;8.51;92.28
55733;BME280;41637;52.364;9.910;2023-03-14T05:37:16;98138.18;;;8.52;92.30
55733;BME280;41637;52.364;9.910;2023-03-14T05:39:45;98144.27;;;8.54;92.34
55733;BME280;41637;52.364;9.910;2023-03-14T05:42:12;98142.64;;;8.57;92.17
55733;BME280;41637;52.364;9.910;2023-03-14T05:44:40;98151.46;;;8.59;92.29
55733;BME280;41637;52.364;9.910;2023-03-14T05:47:07;98146.76;;;8.62;92.24
55733;BME280;41637;52.364;9.910;2023-03-14T05:49:36;98148.02;;;8.64;92.00
55733;BME280;41637;52.364;9.910;2023-03-14T05:52:03;98143.70;;;8.66;91.72
55733;BME280;41637;52.364;9.910;2023-03-14T05:54:31;98144.14;;;8.68;91.53
55733;BME280;41637;52.364;9.910;2023-03-14T05:56:58;98140.81;;;8.73;91.45
55733;BME280;41637;52.364;9.910;2023-03-14T05:59:25;98145.15;;;8.75;91.31
55733;BME280;41637;52.364;9.910;2023-03-14T06:01:51;98157.00;;;8.79;91.07
55733;BME280;41637;52.364;9.910;2023-03-14T06:04:18;98151.98;;;8.84;90.91
55733;BME280;41637;52.364;9.910;2023-03-14T06:06:48;98155.16;;;8.88;90.82
55733;BME280;41637;52.364;9.910;2023-03-14T06:09:14;98150.41;;;8.93;90.71
55733;BME280;41637;52.364;9.910;2023-03-14T06:11:41;98157.41;;;8.95;90.60
55733;BME280;41637;52.364;9.910;2023-03-14T06:14:09;98164.59;;;9.00;90.26
55733;BME280;41637;52.364;9.910;2023-03-14T06:16:35;98163.13;;;9.03;89.93
55733;BME280;41637;52.364;9.910;2023-03-14T06:19:02;98170.60;;;9.06;89.66
55733;BME280;41637;52.364;9.910;2023-03-14T06:21:30;98162.54;;;9.11;89.33
55733;BME280;41637;52.364;9.910;2023-03-14T06:23:56;98157.61;;;9.20;88.95
55733;BME280;41637;52.364;9.910;2023-03-14T06:26:23;98157.45;;;9.26;88.39
55733;BME280;41637;52.364;9.910;2023-03-14T06:28:50;98164.04;;;9.34;87.82
55733;BME280;41637;52.364;9.910;2023-03-14T06:31:17;98159.52;;;9.42;87.54
55733;BME280;41637;52.364;9.910;2023-03-14T06:33:44;98163.20;;;9.51;87.05
55733;BME280;41637;52.364;9.910;2023-03-14T06:36:11;98166.38;;;9.60;86.47
55733;BME280;41637;52.364;9.910;2023-03-14T06:38:38;98176.83;;;9.66;86.25
55733;BME280;41637;52.364;9.910;2023-03-14T06:41:05;98177.48;;;9.72;86.18
55733;BME280;41637;52.364;9.910;2023-03-14T06:43:32;98178.48;;;9.76;85.43
55733;BME280;41637;52.364;9.910;2023-03-14T06:45:59;98184.42;;;9.82;85.36
55733;BME280;41637;52.364;9.910;2023-03-14T06:48:26;98191.98;;;9.86;84.77
55733;BME280;41637;52.364;9.910;2023-03-14T06:50:53;98194.20;;;9.90;84.46
55733;BME280;41637;52.364;9.910;2023-03-14T06:53:20;98184.02;;;9.93;84.01
55733;BME280;41637;52.364;9.910;2023-03-14T06:55:47;98187.58;;;9.96;83.18
55733;BME280;41637;52.364;9.910;2023-03-14T06:58:14;98194.34;;;10.02;83.18
55733;BME280;41637;52.364;9.910;2023-03-14T07:00:41;98187.11;;;10.05;82.61
55733;BME280;41637;52.364;9.910;2023-03-14T07:03:07;98189.13;;;10.08;81.69
55733;BME280;41637;52.364;9.910;2023-03-14T07:05:38;98191.05;;;10.13;81.43
55733;BME280;41637;52.364;9.910;2023-03-14T07:08:08;98198.09;;;10.19;81.52
55733;BME280;41637;52.364;9.910;2023-03-14T07:10:35;98198.83;;;10.24;81.49
55733;BME280;41637;52.364;9.910;2023-03-14T07:13:02;98195.11;;;10.31;81.31
55733;BME280;41637;52.364;9.910;2023-03-14T07:15:29;98192.73;;;10.38;81.43
55733;BME280;41637;52.364;9.910;2023-03-14T07:17:56;98196.33;;;10.41;82.21
55733;BME280;41637;52.364;9.910;2023-03-14T07:20:22;98195.68;;;10.33;83.77
55733;BME280;41637;52.364;9.910;2023-03-14T07:22:50;98194.66;;;10.20;84.81
55733;BME280;41637;52.364;9.910;2023-03-14T07:25:17;98191.73;;;10.11;85.55
55733;BME280;41637;52.364;9.910;2023-03-14T07:27:45;98187.30;;;10.07;86.25
55733;BME280;41637;52.364;9.910;2023-03-14T07:30:14;98189.50;;;10.04;86.65
55733;BME280;41637;52.364;9.910;2023-03-14T07:32:40;98189.20;;;10.04;86.41
55733;BME280;41637;52.364;9.910;2023-03-14T07:35:08;98194.37;;;10.06;86.46
55733;BME280;41637;52.364;9.910;2023-03-14T07:37:35;98187.98;;;10.08;86.78
55733;BME280;41637;52.364;9.910;2023-03-14T07:40:02;98191.92;;;10.08;86.71
55733;BME280;41637;52.364;9.910;2023-03-14T07:42:31;98189.89;;;10.12;87.03
55733;BME280;41637;52.364;9.910;2023-03-14T07:44:58;98192.35;;;10.11;87.03
55733;BME280;41637;52.364;9.910;2023-03-14T07:47:25;98197.25;;;10.09;87.24
55733;BME280;41637;52.364;9.910;2023-03-14T07:49:52;98192.20;;;10.05;87.89
55733;BME280;41637;52.364;9.910;2023-03-14T07:52:19;98196.31;;;10.00;89.13
55733;BME280;41637;52.364;9.910;2023-03-14T07:54:46;98200.58;;;9.91;90.11
55733;BME280;41637;52.364;9.910;2023-03-14T07:57:12;98215.03;;;9.79;91.02
55733;BME280;41637;52.364;9.910;2023-03-14T07:59:39;98210.83;;;9.67;92.46
55733;BME280;41637;52.364;9.910;2023-03-14T08:02:11;98228.18;;;9.52;93.98
55733;BME280;41637;52.364;9.910;2023-03-14T08:04:39;98226.31;;;9.38;95.58
55733;BME280;41637;52.364;9.910;2023-03-14T08:07:06;98221.26;;;9.27;96.27
55733;BME280;41637;52.364;9.910;2023-03-14T08:09:33;98225.67;;;9.18;96.88
55733;BME280;41637;52.364;9.910;2023-03-14T08:11:59;98221.17;;;9.16;97.95
55733;BME280;41637;52.364;9.910;2023-03-14T08:14:26;98222.17;;;9.10;98.59
55733;BME280;41637;52.364;9.910;2023-03-14T08:16:55;98223.11;;;9.09;98.98
55733;BME280;41637;52.364;9.910;2023-03-14T08:19:22;98215.83;;;9.10;99.08
55733;BME280;41637;52.364;9.910;2023-03-14T08:21:49;98212.49;;;9.12;99.58
55733;BME280;41637;52.364;9.910;2023-03-14T08:24:15;98211.34;;;9.14;99.85
55733;BME280;41637;52.364;9.910;2023-03-14T08:26:43;98205.81;;;9.20;99.95
55733;BME280;41637;52.364;9.910;2023-03-14T08:29:10;98204.09;;;9.29;99.84
55733;BME280;41637;52.364;9.910;2023-03-14T08:31:37;98196.02;;;9.37;99.58
55733;BME280;41637;52.364;9.910;2023-03-14T08:34:04;98199.51;;;9.44;99.49
55733;BME280;41637;52.364;9.910;2023-03-14T08:36:33;98200.33;;;9.48;98.70
55733;BME280;41637;52.364;9.910;2023-03-14T08:39:00;98195.13;;;9.52;98.04
55733;BME280;41637;52.364;9.910;2023-03-14T08:41:28;98200.09;;;9.60;97.50
55733;BME280;41637;52.364;9.910;2023-03-14T08:43:55;98206.30;;;9.66;97.21
55733;BME280;41637;52.364;9.910;2023-03-14T08:46:21;98206.79;;;9.68;96.12
55733;BME280;41637;52.364;9.910;2023-03-14T08:48:48;98204.05;;;9.78;95.70
55733;BME280;41637;52.364;9.910;2023-03-14T08:51:15;98206.65;;;9.86;94.68
55733;BME280;41637;52.364;9.910;2023-03-14T08:53:41;98207.42;;;9.92;94.64
55733;BME280;41637;52.364;9.910;2023-03-14T08:56:09;98204.13;;;9.99;94.05
55733;BME280;41637;52.364;9.910;2023-03-14T08:58:37;98201.67;;;10.08;94.54
55733;BME280;41637;52.364;9.910;2023-03-14T09:01:08;98205.55;;;10.19;93.86
55733;BME280;41637;52.364;9.910;2023-03-14T09:03:36;98208.91;;;10.29;92.76
55733;BME280;41637;52.364;9.910;2023-03-14T09:06:04;98205.60;;;10.38;92.36
55733;BME280;41637;52.364;9.910;2023-03-14T09:08:31;98205.95;;;10.43;92.14
55733;BME280;41637;52.364;9.910;2023-03-14T09:10:58;98204.98;;;10.47;92.25
55733;BME280;41637;52.364;9.910;2023-03-14T09:13:25;98206.23;;;10.46;92.15
55733;BME280;41637;52.364;9.910;2023-03-14T09:15:53;98205.97;;;10.49;91.94
55733;BME280;41637;52.364;9.910;2023-03-14T09:18:21;98202.42;;;10.52;92.23
55733;BME280;41637;52.364;9.910;2023-03-14T09:20:48;98198.32;;;10.62;92.22
55733;BME280;41637;52.364;9.910;2023-03-14T09:23:16;98202.20;;;10.69;91.67
55733;BME280;41637;52.364;9.910;2023-03-14T09:25:42;98200.77;;;10.69;91.66
55733;BME280;41637;52.364;9.910;2023-03-14T09:28:09;98208.27;;;10.67;92.00
55733;BME280;41637;52.364;9.910;2023-03-14T09:30:36;98204.23;;;10.67;92.17
55733;BME280;41637;52.364;9.910;2023-03-14T09:33:03;98202.19;;;10.71;92.18
55733;BME280;41637;52.364;9.910;2023-03-14T09:35:30;98205.21;;;10.73;92.18
55733;BME280;41637;52.364;9.910;2023-03-14T09:37:57;98204.57;;;10.73;91.54
55733;BME280;41637;52.364;9.910;2023-03-14T09:40:23;98202.23;;;10.79;91.44
55733;BME280;41637;52.364;9.910;2023-03-14T09:42:51;98197.90;;;10.82;90.75
55733;BME280;41637;52.364;9.910;2023-03-14T09:45:25;98206.98;;;10.84;90.28
55733;BME280;41637;52.364;9.910;2023-03-14T09:47:54;98205.69;;;10.85;90.97
55733;BME280;41637;52.364;9.910;2023-03-14T09:50:27;98200.88;;;10.92;91.72
55733;BME280;41637;52.364;9.910;2023-03-14T09:53:01;98202.27;;;11.01;91.86
55733;BME280;41637;52.364;9.910;2023-03-14T09:55:29;98205.55;;;11.08;90.87
55733;BME280;41637;52.364;9.910;2023-03-14T09:58:01;98210.51;;;11.12;90.58
55733;BME280;41637;52.364;9.910;2023-03-14T10:00:31;98212.42;;;11.19;90.12
55733;BME280;41637;52.364;9.910;2023-03-14T10:05:41;98211.98;;;11.57;88.82
55733;BME280;41637;52.364;9.910;2023-03-14T10:08:12;98217.00;;;11.73;88.20
55733;BME280;41637;52.364;9.910;2023-03-14T10:10:39;98218.42;;;11.83;86.00
55733;BME280;41637;52.364;9.910;2023-03-14T10:15:37;98220.35;;;12.09;83.79
55733;BME280;41637;52.364;9.910;2023-03-14T10:18:10;98212.38;;;12.18;83.36
55733;BME280;41637;52.364;9.910;2023-03-14T10:20:41;98203.86;;;12.34;83.54
55733;BME280;41637;52.364;9.910;2023-03-14T10:25:58;98198.25;;;12.58;81.16
55733;BME280;41637;52.364;9.910;2023-03-14T10:28:32;98199.58;;;12.69;80.27
55733;BME280;41637;52.364;9.910;2023-03-14T10:31:00;98195.63;;;12.77;80.78
55733;BME280;41637;52.364;9.910;2023-03-14T10:33:29;98197.88;;;12.74;80.39
55733;BME280;41637;52.364;9.910;2023-03-14T10:36:18;98200.27;;;12.59;79.97
55733;BME280;41637;52.364;9.910;2023-03-14T10:38:46;98204.70;;;12.38;82.19
55733;BME280;41637;52.364;9.910;2023-03-14T10:41:26;98207.17;;;12.26;83.49
55733;BME280;41637;52.364;9.910;2023-03-14T10:43:56;98202.10;;;12.04;83.89
55733;BME280;41637;52.364;9.910;2023-03-14T10:46:25;98213.52;;;11.85;84.13
55733;BME280;41637;52.364;9.910;2023-03-14T10:48:54;98204.86;;;11.75;84.41
55733;BME280;41637;52.364;9.910;2023-03-14T10:51:29;98205.67;;;11.65;84.96
55733;BME280;41637;52.364;9.910;2023-03-14T10:54:01;98208.30;;;11.55;86.18
55733;BME280;41637;52.364;9.910;2023-03-14T10:56:34;98200.19;;;11.50;87.94
55733;BME280;41637;52.364;9.910;2023-03-14T10:59:03;98197.14;;;11.44;89.03
55733;BME280;41637;52.364;9.910;2023-03-14T11:07:32;98202.29;;;11.45;87.17
55733;BME280;41637;52.364;9.910;2023-03-14T11:12:56;98203.15;;;11.67;85.33
55733;BME280;41637;52.364;9.910;2023-03-14T11:18:28;98202.64;;;11.93;84.21
55733;BME280;41637;52.364;9.910;2023-03-14T11:23:43;98195.25;;;12.25;83.56
55733;BME280;41637;52.364;9.910;2023-03-14T11:28:58;98200.67;;;12.33;81.01
55733;BME280;41637;52.364;9.910;2023-03-14T11:31:31;98198.29;;;12.25;81.43
55733;BME280;41637;52.364;9.910;2023-03-14T11:36:52;98300.73;;;11.73;86.42
55733;BME280;41637;52.364;9.910;2023-03-14T11:39:20;98352.41;;;9.69;94.42
55733;BME280;41637;52.364;9.910;2023-03-14T11:42:00;98344.73;;;8.67;98.48
55733;BME280;41637;52.364;9.910;2023-03-14T11:44:35;98357.80;;;7.91;99.96
55733;BME280;41637;52.364;9.910;2023-03-14T11:47:15;98369.30;;;7.40;100.00
55733;BME280;41637;52.364;9.910;2023-03-14T11:49:53;98374.50;;;7.06;100.00
55733;BME280;41637;52.364;9.910;2023-03-14T11:55:24;98387.02;;;6.55;100.00
55733;BME280;41637;52.364;9.910;2023-03-14T11:58:00;98409.23;;;6.40;100.00
55733;BME280;41637;52.364;9.910;2023-03-14T12:00:28;98427.40;;;6.22;100.00
55733;BME280;41637;52.364;9.910;2023-03-14T12:10:58;98460.36;;;5.55;100.00
55733;BME280;41637;52.364;9.910;2023-03-14T12:13:33;98480.55;;;5.43;100.00
55733;BME280;41637;52.364;9.910;2023-03-14T12:16:09;98507.52;;;5.24;100.00
55733;BME280;41637;52.364;9.910;2023-03-14T12:18:45;98520.73;;;5.02;100.00
55733;BME280;41637;52.364;9.910;2023-03-14T12:21:12;98516.26;;;4.92;100.00
55733;BME280;41637;52.364;9.910;2023-03-14T12:23:50;98536.94;;;4.78;100.00
55733;BME280;41637;52.364;9.910;2023-03-14T12:26:25;98550.30;;;4.59;100.00
55733;BME280;41637;52.364;9.910;2023-03-14T12:29:24;98570.94;;;4.46;100.00
55733;BME280;41637;52.364;9.910;2023-03-14T12:34:38;98599.31;;;4.14;100.00
55733;BME280;41637;52.364;9.910;2023-03-14T12:42:12;98661.75;;;3.64;100.00
55733;BME280;41637;52.364;9.910;2023-03-14T12:44:48;98679.17;;;3.52;100.00
55733;BME280;41637;52.364;9.910;2023-03-14T12:49:54;98685.05;;;3.47;100.00
55733;BME280;41637;52.364;9.910;2023-03-14T12:55:38;98704.23;;;3.44;100.00
55733;BME280;41637;52.364;9.910;2023-03-14T12:58:31;98704.61;;;3.44;100.00
55733;BME280;41637;52.364;9.910;2023-03-14T13:01:06;98721.11;;;3.45;100.00
55733;BME280;41637;52.364;9.910;2023-03-14T13:03:56;98724.15;;;3.43;100.00
55733;BME280;41637;52.364;9.910;2023-03-14T13:06:51;98732.47;;;3.42;100.00
55733;BME280;41637;52.364;9.910;2023-03-14T13:12:00;98756.18;;;3.43;100.00
55733;BME280;41637;52.364;9.910;2023-03-14T13:14:32;98762.07;;;3.56;100.00
55733;BME280;41637;52.364;9.910;2023-03-14T13:17:10;98785.05;;;3.81;100.00
55733;BME280;41637;52.364;9.910;2023-03-14T13:20:02;98806.83;;;4.09;100.00
55733;BME280;41637;52.364;9.910;2023-03-14T13:22:34;98811.33;;;4.30;100.00
55733;BME280;41637;52.364;9.910;2023-03-14T13:25:07;98807.27;;;4.74;100.00
55733;BME280;41637;52.364;9.910;2023-03-14T13:27:35;98818.45;;;5.22;100.00
55733;BME280;41637;52.364;9.910;2023-03-14T13:30:17;98836.38;;;5.39;99.89
55733;BME280;41637;52.364;9.910;2023-03-14T13:32:46;98847.14;;;5.24;97.98
55733;BME280;41637;52.364;9.910;2023-03-14T13:35:17;98845.60;;;5.13;98.38
55733;BME280;41637;52.364;9.910;2023-03-14T13:37:44;98859.11;;;5.06;99.24
55733;BME280;41637;52.364;9.910;2023-03-14T13:40:19;98865.84;;;4.87;98.32
55733;BME280;41637;52.364;9.910;2023-03-14T13:42:47;98874.41;;;4.82;99.58
55733;BME280;41637;52.364;9.910;2023-03-14T13:45:14;98878.89;;;4.77;99.89
55733;BME280;41637;52.364;9.910;2023-03-14T13:47:45;98880.73;;;4.71;100.00
55733;BME280;41637;52.364;9.910;2023-03-14T13:50:16;98884.55;;;4.75;100.00
55733;BME280;41637;52.364;9.910;2023-03-14T13:52:46;98895.52;;;4.78;100.00
55733;BME280;41637;52.364;9.910;2023-03-14T13:55:18;98894.46;;;4.88;100.00
55733;BME280;41637;52.364;9.910;2023-03-14T13:57:47;98904.67;;;5.09;99.97
55733;BME280;41637;52.364;9.910;2023-03-14T14:00:19;98899.92;;;5.51;100.00
55733;BME280;41637;52.364;9.910;2023-03-14T14:02:47;98896.90;;;6.14;99.44
55733;BME280;41637;52.364;9.910;2023-03-14T14:05:15;98921.23;;;6.28;95.24
55733;BME280;41637;52.364;9.910;2023-03-14T14:07:43;98916.30;;;6.11;92.55
55733;BME280;41637;52.364;9.910;2023-03-14T14:10:13;98924.70;;;5.93;93.08
55733;BME280;41637;52.364;9.910;2023-03-14T14:12:45;98929.35;;;5.83;93.90
55733;BME280;41637;52.364;9.910;2023-03-14T14:15:20;98954.04;;;5.78;94.09
55733;BME280;41637;52.364;9.910;2023-03-14T14:18:17;98963.27;;;5.52;94.30